Time;durP1;ratioP1;P1;durP2;ratioP2;P2;SDS_P1;SDS_P2;PMS_P1;PMS_P2;Temp;Humidity;BMP_temperature;BMP_pressure;BME280_temperature;BME280_humidity;BME280_pressure;Samples;Min_cycle;Max_cycle;Signal;HPM_P1;HPM_P2
2022/09/25 00:00:55;;;;;;;0.20;0.20;;;10.10;99.90;;;;;;4877673;29;20097;-78
2022/09/25 00:03:24;;;;;;;0.20;0.20;;;10.10;99.90;;;;;;4876066;29;20045;-78
2022/09/25 00:05:54;;;;;;;0.20;0.20;;;10.10;99.90;;;;;;4861094;29;20112;-78
2022/09/25 00:08:20;;;;;;;0.20;0.20;;;10.10;99.90;;;;;;4876420;29;20132;-78
2022/09/25 00:10:52;;;;;;;0.20;0.20;;;10.10;99.90;;;;;;4860062;29;20136;-78
2022/09/25 00:13:20;;;;;;;0.20;0.20;;;10.00;99.90;;;;;;4876655;29;20148;-78
2022/09/25 00:15:52;;;;;;;0.20;0.20;;;10.00;99.90;;;;;;4856297;29;20132;-78
2022/09/25 00:19:48;;;;;;;;;;;10.00;99.90;;;;;;4876894;29;20049;-78
2022/09/25 00:21:05;;;;;;;0.15;0.15;;;10.00;99.90;;;;;;4877231;29;19942;-78
2022/09/25 00:23:33;;;;;;;0.20;0.20;;;10.00;99.90;;;;;;4877799;29;20077;-77
2022/09/25 00:26:04;;;;;;;0.20;0.20;;;10.00;99.90;;;;;;4860553;29;20481;-77
2022/09/25 00:28:30;;;;;;;0.10;0.10;;;10.00;99.90;;;;;;4871665;29;20088;-78
2022/09/25 00:30:57;;;;;;;0.20;0.20;;;10.00;99.90;;;;;;4859801;29;20045;-78
2022/09/25 00:33:23;;;;;;;0.20;0.20;;;10.00;99.90;;;;;;4861577;29;20080;-78
2022/09/25 00:35:49;;;;;;;0.20;0.20;;;10.00;99.90;;;;;;4877151;29;20037;-77
2022/09/25 00:38:14;;;;;;;0.20;0.20;;;9.90;99.90;;;;;;4877077;29;20120;-78
2022/09/25 00:40:43;;;;;;;0.20;0.20;;;9.90;99.90;;;;;;4860241;29;20041;-78
2022/09/25 00:43:52;;;;;;;0.20;0.20;;;10.00;99.90;;;;;;4877013;29;20390;-78
2022/09/25 00:46:24;;;;;;;0.20;0.20;;;9.90;99.90;;;;;;4874266;29;20121;-77
2022/09/25 00:49:21;;;;;;;0.20;0.20;;;9.90;99.90;;;;;;4857863;29;20053;-77
2022/09/25 00:51:49;;;;;;;0.10;0.10;;;9.90;99.90;;;;;;4860946;29;20056;-77
2022/09/25 00:54:29;;;;;;;0.20;0.20;;;9.90;99.90;;;;;;4878030;29;20044;-79
2022/09/25 00:56:57;;;;;;;0.20;0.20;;;9.90;99.90;;;;;;4876418;29;20063;-78
2022/09/25 00:59:42;;;;;;;0.20;0.20;;;9.90;99.90;;;;;;4860392;29;20045;-78
2022/09/25 01:02:12;;;;;;;0.10;0.10;;;9.90;99.90;;;;;;4856625;29;20148;-78
2022/09/25 01:04:40;;;;;;;0.17;0.17;;;9.90;99.90;;;;;;4875992;29;20045;-78
2022/09/25 01:07:07;;;;;;;0.10;0.10;;;9.80;99.90;;;;;;4858171;29;20057;-78
2022/09/25 01:09:34;;;;;;;0.20;0.20;;;9.80;99.90;;;;;;4862914;29;20443;-76
2022/09/25 01:12:00;;;;;;;0.20;0.20;;;9.80;99.90;;;;;;4895501;29;20048;-78
2022/09/25 01:14:27;;;;;;;0.20;0.20;;;9.80;99.90;;;;;;4865484;29;20045;-78
2022/09/25 01:17:16;;;;;;;0.20;0.20;;;9.80;99.90;;;;;;4861072;29;20108;-78
2022/09/25 01:20:07;;;;;;;0.20;0.20;;;9.80;99.90;;;;;;4882919;29;20060;-78
2022/09/25 01:23:05;;;;;;;0.20;0.20;;;9.80;99.90;;;;;;4856124;29;20505;-79
2022/09/25 01:25:49;;;;;;;0.20;0.20;;;9.80;99.90;;;;;;4873638;29;20048;-78
2022/09/25 01:28:28;;;;;;;0.20;0.20;;;9.70;99.90;;;;;;4874675;29;20064;-77
2022/09/25 01:31:00;;;;;;;0.20;0.20;;;9.70;99.90;;;;;;4857849;29;20053;-78
2022/09/25 01:33:41;;;;;;;0.20;0.20;;;9.70;99.90;;;;;;4872940;29;20057;-78
2022/09/25 01:36:19;;;;;;;0.20;0.20;;;9.70;99.90;;;;;;4873474;29;20075;-78
2022/09/25 01:38:56;;;;;;;0.20;0.20;;;9.70;99.90;;;;;;4866523;29;20057;-78
2022/09/25 01:41:57;;;;;;;0.10;0.10;;;9.70;99.90;;;;;;4855859;29;20156;-79
2022/09/25 01:44:31;;;;;;;0.10;0.10;;;9.60;99.90;;;;;;4821713;29;20060;-78
2022/09/25 01:47:18;;;;;;;0.20;0.20;;;9.60;99.90;;;;;;4875736;29;20080;-79
2022/09/25 01:49:58;;;;;;;0.20;0.20;;;9.70;99.90;;;;;;4854978;29;20739;-79
2022/09/25 01:52:31;;;;;;;0.10;0.10;;;9.60;99.90;;;;;;4872778;29;20052;-78
2022/09/25 01:55:20;;;;;;;0.20;0.20;;;9.60;99.90;;;;;;4858012;29;20049;-78
2022/09/25 01:57:55;;;;;;;0.20;0.20;;;9.60;99.90;;;;;;4873724;29;20088;-78
2022/09/25 02:00:22;;;;;;;0.20;0.20;;;9.60;99.90;;;;;;4856087;29;20128;-78
2022/09/25 02:02:56;;;;;;;0.20;0.20;;;9.60;99.90;;;;;;4875949;29;20385;-78
2022/09/25 02:05:51;;;;;;;0.17;0.17;;;9.60;99.90;;;;;;4856627;29;20064;-78
2022/09/25 02:08:22;;;;;;;0.20;0.20;;;9.60;99.90;;;;;;4852363;29;20057;-78
2022/09/25 02:10:56;;;;;;;0.20;0.20;;;9.60;99.90;;;;;;4860056;29;20057;-78
2022/09/25 02:13:28;;;;;;;0.20;0.20;;;9.60;99.90;;;;;;4874339;29;20052;-78
2022/09/25 02:16:04;;;;;;;0.20;0.20;;;9.60;99.90;;;;;;4858509;29;20049;-78
2022/09/25 02:21:33;;;;;;;0.20;0.20;;;9.50;99.90;;;;;;4875865;29;20053;-78
2022/09/25 02:24:20;;;;;;;0.20;0.20;;;9.50;99.90;;;;;;4876032;29;20065;-78
2022/09/25 02:26:47;;;;;;;0.20;0.20;;;9.60;99.90;;;;;;4874785;29;20064;-78
2022/09/25 02:29:14;;;;;;;0.15;0.15;;;9.50;99.90;;;;;;4874935;29;20057;-78
2022/09/25 02:31:53;;;;;;;0.20;0.20;;;9.50;99.90;;;;;;4875334;29;20114;-78
2022/09/25 02:34:22;;;;;;;0.20;0.20;;;9.50;99.90;;;;;;4873076;29;20072;-78
2022/09/25 02:36:47;;;;;;;0.20;0.20;;;9.60;99.90;;;;;;4873835;29;20112;-78
2022/09/25 02:39:21;;;;;;;0.20;0.20;;;9.50;99.90;;;;;;4859116;29;20079;-78
2022/09/25 02:42:08;;;;;;;0.10;0.10;;;9.50;99.90;;;;;;4859929;29;20502;-78
2022/09/25 02:44:55;;;;;;;0.20;0.20;;;9.40;99.90;;;;;;4859322;29;20083;-78
2022/09/25 02:47:31;;;;;;;0.10;0.10;;;9.40;99.90;;;;;;4857433;29;20050;-77
2022/09/25 02:50:04;;;;;;;0.10;0.10;;;9.40;99.90;;;;;;4855020;29;20045;-77
2022/09/25 02:52:51;;;;;;;0.10;0.10;;;9.40;99.90;;;;;;4868484;29;20045;-77
2022/09/25 02:55:26;;;;;;;0.20;0.20;;;9.40;99.90;;;;;;4892935;29;20044;-76
2022/09/25 02:58:00;;;;;;;0.20;0.20;;;9.40;99.90;;;;;;4876474;29;20152;-78
2022/09/25 03:00:26;;;;;;;0.20;0.20;;;9.40;99.90;;;;;;4859039;29;20057;-78
2022/09/25 03:02:58;;;;;;;0.20;0.20;;;9.30;99.90;;;;;;4873720;29;20438;-78
2022/09/25 03:05:25;;;;;;;0.20;0.20;;;9.30;99.90;;;;;;4879936;29;20060;-78
2022/09/25 03:10:38;;;;;;;0.20;0.20;;;9.30;99.90;;;;;;4875407;29;20116;-77
2022/09/25 03:13:18;;;;;;;0.20;0.20;;;9.30;99.90;;;;;;4859916;29;20486;-77
2022/09/25 03:15:49;;;;;;;0.20;0.20;;;9.20;99.90;;;;;;4862435;29;20045;-77
2022/09/25 03:18:15;;;;;;;0.20;0.20;;;9.20;99.90;;;;;;4859719;29;20529;-77
2022/09/25 03:20:41;;;;;;;0.20;0.20;;;9.20;99.90;;;;;;4878413;29;20497;-78
2022/09/25 03:23:10;;;;;;;0.20;0.20;;;9.20;99.90;;;;;;4861901;29;20057;-78
2022/09/25 03:25:36;;;;;;;0.20;0.20;;;9.30;99.90;;;;;;4876400;29;20045;-78
2022/09/25 03:28:02;;;;;;;0.20;0.20;;;9.30;99.90;;;;;;4861160;29;20168;-78
2022/09/25 03:30:28;;;;;;;0.10;0.10;;;9.20;99.90;;;;;;4878653;29;20148;-77
2022/09/25 03:32:54;;;;;;;0.10;0.10;;;9.30;99.90;;;;;;4858723;29;20041;-78
2022/09/25 03:35:20;;;;;;;0.10;0.10;;;9.30;99.90;;;;;;4878083;29;20089;-78
2022/09/25 03:37:45;;;;;;;0.10;0.10;;;9.30;99.90;;;;;;4876537;29;20056;-78
2022/09/25 03:40:11;;;;;;;0.20;0.20;;;9.30;99.90;;;;;;4875335;29;20664;-77
2022/09/25 03:42:37;;;;;;;0.20;0.20;;;9.30;99.90;;;;;;4859319;29;20053;-78
2022/09/25 03:45:05;;;;;;;0.20;0.20;;;9.30;99.90;;;;;;4877051;29;20153;-77
2022/09/25 03:47:33;;;;;;;0.20;0.20;;;9.30;99.90;;;;;;4892576;29;20053;-78
2022/09/25 03:49:59;;;;;;;0.20;0.20;;;9.40;99.90;;;;;;4878046;29;20112;-78
2022/09/25 03:52:25;;;;;;;0.20;0.20;;;9.40;99.90;;;;;;4860942;29;20152;-78
2022/09/25 03:54:53;;;;;;;0.20;0.20;;;9.30;99.90;;;;;;4877267;29;20049;-78
2022/09/25 03:57:19;;;;;;;0.17;0.17;;;9.40;99.90;;;;;;4878253;29;20160;-78
2022/09/25 03:59:44;;;;;;;0.20;0.20;;;9.40;99.90;;;;;;4876380;29;20116;-79
2022/09/25 04:02:11;;;;;;;0.20;0.20;;;9.50;99.90;;;;;;4860446;29;20073;-79
2022/09/25 04:04:37;;;;;;;0.20;0.20;;;9.50;99.90;;;;;;4859618;29;20359;-78
2022/09/25 04:07:02;;;;;;;0.20;0.20;;;9.50;99.90;;;;;;4876985;29;20077;-78
2022/09/25 04:09:28;;;;;;;0.20;0.20;;;9.40;99.90;;;;;;4859054;29;20049;-78
2022/09/25 04:11:55;;;;;;;0.20;0.20;;;9.40;99.90;;;;;;4875924;29;20401;-78
2022/09/25 04:14:23;;;;;;;0.10;0.10;;;9.40;99.90;;;;;;4858699;29;20108;-78
2022/09/25 04:16:50;;;;;;;0.10;0.10;;;9.50;99.90;;;;;;4858855;29;20088;-78
2022/09/25 04:19:18;;;;;;;0.20;0.20;;;9.40;99.90;;;;;;4874452;29;20044;-78
2022/09/25 04:21:44;;;;;;;0.20;0.20;;;9.40;99.90;;;;;;4860734;29;20470;-78
2022/09/25 04:26:54;;;;;;;0.13;0.13;;;9.30;99.90;;;;;;4880794;29;20064;-78
2022/09/25 04:29:21;;;;;;;0.20;0.20;;;9.30;99.90;;;;;;4866202;29;20072;-78
2022/09/25 04:33:44;;;;;;;0.20;0.20;;;9.30;99.90;;;;;;4861089;29;20052;-79
2022/09/25 04:34:35;;;;;;;0.20;0.20;;;9.40;99.90;;;;;;4859829;29;20057;-78
2022/09/25 04:37:03;;;;;;;0.20;0.20;;;9.30;99.90;;;;;;4860208;29;20064;-78
2022/09/25 04:39:29;;;;;;;0.20;0.20;;;9.30;99.90;;;;;;4897658;29;20052;-78
2022/09/25 04:41:54;;;;;;;0.20;0.20;;;9.30;99.90;;;;;;4867660;29;20053;-78
2022/09/25 04:44:20;;;;;;;0.20;0.20;;;9.30;99.90;;;;;;4878579;29;20044;-78
2022/09/25 04:46:45;;;;;;;0.20;0.20;;;9.30;99.90;;;;;;4875933;29;20707;-78
2022/09/25 04:49:11;;;;;;;0.20;0.20;;;9.30;99.90;;;;;;4873882;29;20041;-77
2022/09/25 04:51:37;;;;;;;0.20;0.20;;;9.30;99.90;;;;;;4861001;29;20048;-78
2022/09/25 04:54:05;;;;;;;0.20;0.20;;;9.30;99.90;;;;;;4858466;29;20055;-78
2022/09/25 04:56:31;;;;;;;0.10;0.10;;;9.30;99.90;;;;;;4849699;29;20048;-78
2022/09/25 04:58:56;;;;;;;0.17;0.17;;;9.30;99.90;;;;;;4875814;29;20041;-79
2022/09/25 05:01:22;;;;;;;0.10;0.10;;;9.30;99.90;;;;;;4859151;29;20490;-79
2022/09/25 05:03:52;;;;;;;0.20;0.20;;;9.20;99.90;;;;;;4872458;29;20057;-78
2022/09/25 05:06:18;;;;;;;0.10;0.10;;;9.10;99.90;;;;;;4876916;29;20128;-77
2022/09/25 05:08:46;;;;;;;0.20;0.20;;;9.10;99.90;;;;;;4874792;29;20041;-78
2022/09/25 05:11:12;;;;;;;0.20;0.20;;;9.10;99.90;;;;;;4875048;29;20104;-77
2022/09/25 05:13:42;;;;;;;0.20;0.20;;;9.10;99.90;;;;;;4853850;29;20089;-78
2022/09/25 05:16:08;;;;;;;0.10;0.10;;;9.00;99.90;;;;;;4876586;29;20080;-77
2022/09/25 05:18:33;;;;;;;0.20;0.20;;;9.00;99.90;;;;;;4858331;29;20071;-78
2022/09/25 05:21:02;;;;;;;0.20;0.20;;;9.00;99.90;;;;;;4874147;29;20053;-78
2022/09/25 05:23:29;;;;;;;0.10;0.10;;;9.00;99.90;;;;;;4875680;29;20121;-78
2022/09/25 05:26:02;;;;;;;0.10;0.10;;;9.30;99.90;;;;;;4876943;29;20430;-78
2022/09/25 05:28:32;;;;;;;0.10;0.10;;;9.00;99.90;;;;;;4859861;29;20129;-78
2022/09/25 05:31:02;;;;;;;0.20;0.20;;;9.00;99.90;;;;;;4857435;29;20053;-78
2022/09/25 05:33:29;;;;;;;0.10;0.10;;;9.30;99.90;;;;;;4858263;29;20052;-78
2022/09/25 05:35:58;;;;;;;0.20;0.20;;;8.90;99.90;;;;;;4874697;29;20037;-78
2022/09/25 05:38:24;;;;;;;0.20;0.20;;;8.90;99.90;;;;;;4871879;29;20061;-78
2022/09/25 05:40:50;;;;;;;0.10;0.10;;;8.90;99.90;;;;;;4875782;29;20116;-78
2022/09/25 05:43:16;;;;;;;0.20;0.20;;;8.90;99.90;;;;;;4858251;29;20055;-78
2022/09/25 05:45:41;;;;;;;0.20;0.20;;;8.90;99.90;;;;;;4856153;29;20087;-78
2022/09/25 05:48:07;;;;;;;0.20;0.20;;;8.90;99.90;;;;;;4857695;29;20401;-78
2022/09/25 05:50:34;;;;;;;0.20;0.20;;;8.90;99.90;;;;;;4875180;29;20072;-78
2022/09/25 05:53:05;;;;;;;0.20;0.20;;;9.00;99.90;;;;;;4876669;29;20128;-78
2022/09/25 05:55:31;;;;;;;0.20;0.20;;;9.00;99.90;;;;;;4860341;29;20045;-78
2022/09/25 05:58:15;;;;;;;0.20;0.20;;;9.00;99.90;;;;;;4875895;29;20499;-78
2022/09/25 06:00:41;;;;;;;0.20;0.20;;;8.90;99.90;;;;;;4857859;29;20564;-78
2022/09/25 06:03:07;;;;;;;0.20;0.20;;;9.00;99.90;;;;;;4853682;29;20045;-78
2022/09/25 06:05:33;;;;;;;0.20;0.20;;;9.00;99.90;;;;;;4875866;29;20097;-78
2022/09/25 06:07:58;;;;;;;0.20;0.20;;;9.00;99.90;;;;;;4871666;29;20073;-78
2022/09/25 06:10:25;;;;;;;0.10;0.10;;;9.00;99.90;;;;;;4856998;29;20397;-78
2022/09/25 06:12:57;;;;;;;0.20;0.20;;;9.00;99.90;;;;;;4856543;29;20061;-77
2022/09/25 06:15:32;;;;;;;0.17;0.17;;;9.10;99.90;;;;;;4858612;29;20057;-77
2022/09/25 06:17:58;;;;;;;0.15;0.15;;;9.10;99.90;;;;;;4875106;29;20537;-78
2022/09/25 06:20:24;;;;;;;0.10;0.10;;;9.10;99.90;;;;;;4859137;29;20079;-77
2022/09/25 06:22:54;;;;;;;0.20;0.20;;;9.10;99.90;;;;;;4885429;29;20045;-77
2022/09/25 06:25:25;;;;;;;0.20;0.20;;;9.10;99.90;;;;;;4890159;29;20548;-78
2022/09/25 06:27:56;;;;;;;0.20;0.20;;;9.30;99.90;;;;;;4861746;29;20102;-78
2022/09/25 06:30:26;;;;;;;0.17;0.17;;;9.30;99.90;;;;;;4875839;29;20128;-78
2022/09/25 06:33:15;;;;;;;0.15;0.15;;;9.40;99.90;;;;;;4857116;29;20056;-79
2022/09/25 06:35:43;;;;;;;0.20;0.20;;;9.30;99.90;;;;;;4857464;29;20080;-78
2022/09/25 06:38:09;;;;;;;0.10;0.10;;;9.30;99.90;;;;;;4857232;29;20084;-78
2022/09/25 06:40:36;;;;;;;0.20;0.20;;;9.40;99.90;;;;;;4873443;29;20084;-78
2022/09/25 06:43:03;;;;;;;0.20;0.20;;;9.40;99.90;;;;;;4858787;29;20044;-78
2022/09/25 06:45:32;;;;;;;0.20;0.20;;;9.50;99.90;;;;;;4861410;29;20447;-77
2022/09/25 06:48:05;;;;;;;0.10;0.10;;;9.60;99.90;;;;;;4856979;29;20429;-78
2022/09/25 06:50:52;;;;;;;0.20;0.20;;;9.50;99.90;;;;;;4857603;29;20053;-77
2022/09/25 06:53:19;;;;;;;0.15;0.15;;;9.60;99.90;;;;;;4872250;29;20085;-80
2022/09/25 06:55:46;;;;;;;0.20;0.20;;;9.60;99.90;;;;;;4873046;29;20052;-78
2022/09/25 06:58:24;;;;;;;0.20;0.20;;;;;;;;;;4858191;29;20053;-79
2022/09/25 07:00:54;;;;;;;0.20;0.20;;;;;;;;;;4872448;29;20065;-78
2022/09/25 07:06:06;;;;;;;0.20;0.20;;;;;;;;;;4869917;29;20429;-79
2022/09/25 07:08:33;;;;;;;0.10;0.10;;;;;;;;;;4856618;29;20109;-79
2022/09/25 07:11:00;;;;;;;0.20;0.20;;;;;;;;;;4876945;29;20136;-79
2022/09/25 07:13:30;;;;;;;0.20;0.20;;;;;;;;;;4860670;29;20049;-80
2022/09/25 07:15:56;;;;;;;0.20;0.20;;;;;;;;;;4857991;29;20053;-81
2022/09/25 07:18:23;;;;;;;0.10;0.10;;;;;;;;;;4875410;29;20052;-80
2022/09/25 07:20:49;;;;;;;0.20;0.20;;;;;;;;;;4859343;29;20386;-77
2022/09/25 07:23:16;;;;;;;0.20;0.20;;;;;;;;;;4872437;29;20401;-78
2022/09/25 07:25:42;;;;;;;0.20;0.20;;;;;;;;;;4871530;29;20192;-78
2022/09/25 07:28:11;;;;;;;0.20;0.20;;;;;;;;;;4873346;29;20053;-78
2022/09/25 07:30:37;;;;;;;0.17;0.17;;;;;;;;;;4856316;29;20072;-78
2022/09/25 07:33:03;;;;;;;0.20;0.20;;;;;;;;;;4857829;29;20044;-78
2022/09/25 07:35:29;;;;;;;0.20;0.20;;;;;;;;;;4874516;29;20046;-78
2022/09/25 07:37:56;;;;;;;0.20;0.20;;;;;;;;;;4857374;29;20048;-78
2022/09/25 07:40:22;;;;;;;0.20;0.20;;;;;;;;;;4876046;29;20049;-77
2022/09/25 07:42:54;;;;;;;0.20;0.20;;;;;;;;;;4858628;29;20140;-79
2022/09/25 07:45:20;;;;;;;0.20;0.20;;;;;;;;;;4884795;29;20442;-75
2022/09/25 07:47:46;;;;;;;0.20;0.20;;;;;;;;;;4865293;29;20079;-77
2022/09/25 07:50:12;;;;;;;0.17;0.17;;;;;;;;;;4863382;29;20069;-77
2022/09/25 07:52:38;;;;;;;0.20;0.20;;;;;;;;;;4876800;29;20052;-77
2022/09/25 07:55:06;;;;;;;0.10;0.10;;;;;;;;;;4863780;29;20456;-77
2022/09/25 07:57:32;;;;;;;0.10;0.10;;;;;;;;;;4880316;29;20124;-77
2022/09/25 08:00:03;;;;;;;0.20;0.20;;;;;;;;;;4877447;29;20045;-76
2022/09/25 08:02:29;;;;;;;0.20;0.20;;;;;;;;;;4877827;29;20077;-78
2022/09/25 08:04:55;;;;;;;0.10;0.10;;;;;;;;;;4879457;29;20021;-76
2022/09/25 08:07:21;;;;;;;0.20;0.20;;;;;;;;;;4892778;29;20045;-75
2022/09/25 08:09:47;;;;;;;0.10;0.10;;;;;;;;;;4879015;29;20104;-75
2022/09/25 08:12:14;;;;;;;0.20;0.20;;;;;;;;;;4859563;29;20082;-76
2022/09/25 08:14:40;;;;;;;0.10;0.10;;;;;;;;;;4876486;29;20045;-77
2022/09/25 08:17:06;;;;;;;0.10;0.10;;;;;;;;;;4873990;29;20196;-77
2022/09/25 08:19:32;;;;;;;0.20;0.20;;;;;;;;;;4857366;29;20155;-77
2022/09/25 08:21:58;;;;;;;0.22;0.22;;;;;;;;;;4877624;29;20064;-77
2022/09/25 08:24:24;;;;;;;0.20;0.20;;;;;;;;;;4860574;29;20513;-76
2022/09/25 08:26:50;;;;;;;0.10;0.10;;;;;;;;;;4856546;29;20057;-77
2022/09/25 08:29:17;;;;;;;0.20;0.20;;;;;;;;;;4874498;29;20049;-77
2022/09/25 08:31:43;;;;;;;0.10;0.10;;;;;;;;;;4861406;29;20045;-77
2022/09/25 08:34:09;;;;;;;0.20;0.20;;;;;;;;;;4876230;29;20045;-78
2022/09/25 08:36:35;;;;;;;0.20;0.20;;;;;;;;;;4862230;29;20498;-78
2022/09/25 08:39:01;;;;;;;0.10;0.10;;;;;;;;;;4876670;29;20049;-77
2022/09/25 08:41:31;;;;;;;0.20;0.20;;;;;;;;;;4860844;29;20064;-77
2022/09/25 08:44:15;;;;;;;0.15;0.15;;;;;;;;;;4860243;29;20056;-84
2022/09/25 08:49:33;;;;;;;0.20;0.20;;;;;;;;;;4859647;29;20099;-78
2022/09/25 08:52:11;;;;;;;0.10;0.10;;;;;;;;;;4863164;29;20048;-78
2022/09/25 08:54:39;;;;;;;0.17;0.17;;;;;;;;;;4860864;29;20144;-80
2022/09/25 08:57:28;;;;;;;0.20;0.20;;;;;;;;;;4861960;29;20053;-79
2022/09/25 08:59:55;;;;;;;0.10;0.10;;;;;;;;;;4860529;29;20129;-79
2022/09/25 09:02:23;;;;;;;0.13;0.13;;;;;;;;;;4877979;29;20049;-78
2022/09/25 09:04:57;;;;;;;0.10;0.10;;;;;;;;;;4860233;29;20088;-78
2022/09/25 09:07:33;;;;;;;0.10;0.10;;;;;;;;;;4876386;29;20712;-79
2022/09/25 09:10:07;;;;;;;0.17;0.17;;;;;;;;;;4860533;29;20052;-79
2022/09/25 09:12:44;;;;;;;0.20;0.20;;;;;;;;;;4878343;29;20049;-78
2022/09/25 09:15:16;;;;;;;0.10;0.10;;;;;;;;;;4861625;29;20064;-78
2022/09/25 09:17:42;;;;;;;0.20;0.20;;;;;;;;;;4859986;29;20080;-79
2022/09/25 09:20:31;;;;;;;0.20;0.20;;;;;;;;;;4858191;29;20187;-79
2022/09/25 09:22:58;;;;;;;0.10;0.10;;;;;;;;;;4859479;29;20123;-78
2022/09/25 09:25:32;;;;;;;0.10;0.10;;;;;;;;;;4861741;29;20065;-78
2022/09/25 09:28:16;;;;;;;0.17;0.17;;;;;;;;;;4854546;29;20057;-76
2022/09/25 09:30:45;;;;;;;0.17;0.17;;;;;;;;;;4859652;29;20053;-77
2022/09/25 09:33:17;;;;;;;0.10;0.10;;;;;;;;;;4857795;29;20153;-76
2022/09/25 09:36:04;;;;;;;0.15;0.15;;;;;;;;;;4858655;29;20768;-77
2022/09/25 09:38:48;;;;;;;0.20;0.20;;;;;;;;;;4855542;29;20049;-78
2022/09/25 09:41:20;;;;;;;0.15;0.15;;;;;;;;;;4858536;29;20178;-77
2022/09/25 09:43:52;;;;;;;0.20;0.20;;;;;;;;;;4856238;29;20053;-78
2022/09/25 09:46:18;;;;;;;0.10;0.10;;;;;;;;;;4858609;29;20113;-78
2022/09/25 09:48:44;;;;;;;0.20;0.20;;;;;;;;;;4859316;29;20053;-78
2022/09/25 09:51:17;;;;;;;0.10;0.10;;;;;;;;;;4874583;29;21105;-78
2022/09/25 09:53:49;;;;;;;0.20;0.20;;;;;;;;;;4863917;29;20501;-78
2022/09/25 09:56:21;;;;;;;0.20;0.20;;;;;;;;;;4858725;29;20590;-78
2022/09/25 09:58:56;;;;;;;0.10;0.10;;;;;;;;;;4857414;29;20056;-79
2022/09/25 10:01:24;;;;;;;0.10;0.10;;;;;;;;;;4839189;29;20106;-76
2022/09/25 10:03:56;;;;;;;0.20;0.20;;;;;;;;;;4837436;29;20057;-76
2022/09/25 10:06:25;;;;;;;0.20;0.20;;;;;;;;;;4848997;29;20053;-76
2022/09/25 10:08:51;;;;;;;0.20;0.20;;;;;;;;;;4858162;29;20088;-76
2022/09/25 10:11:18;;;;;;;0.10;0.10;;;;;;;;;;4858467;29;20125;-77
2022/09/25 10:13:47;;;;;;;0.20;0.20;;;;;;;;;;4856411;29;20055;-76
2022/09/25 10:16:21;;;;;;;0.20;0.20;;;13.50;99.90;;;;;;4858476;29;20053;-76
2022/09/25 10:19:08;;;;;;;0.10;0.10;;;13.50;99.90;;;;;;4855707;29;20049;-76
2022/09/25 10:22:05;;;;;;;0.10;0.10;;;13.60;99.90;;;;;;4859498;29;20045;-77
2022/09/25 10:24:53;;;;;;;0.20;0.20;;;13.70;99.90;;;;;;4860193;29;20486;-77
2022/09/25 10:27:49;;;;;;;0.10;0.10;;;13.80;99.90;;;;;;4854711;29;20061;-76
2022/09/25 10:30:20;;;;;;;0.20;0.20;;;13.90;99.90;;;;;;4871650;29;20048;-76
2022/09/25 10:32:55;;;;;;;;;;;14.00;99.90;;;;;;4875783;29;20063;-76
2022/09/25 10:35:23;;;;;;;0.20;0.20;;;14.00;99.90;;;;;;4858256;29;19946;-76
2022/09/25 10:37:55;;;;;;;0.10;0.10;;;14.10;99.90;;;;;;4871680;29;20461;-76
2022/09/25 10:40:56;;;;;;;0.20;0.20;;;14.20;99.90;;;;;;4856668;29;20577;-76
2022/09/25 10:43:23;;;;;;;0.20;0.20;;;14.30;99.90;;;;;;4857476;29;20120;-76
2022/09/25 10:46:05;;;;;;;0.10;0.10;;;14.40;99.90;;;;;;4857180;29;20319;-75
2022/09/25 10:51:20;;;;;;;0.10;0.10;;;14.50;99.90;;;;;;4857910;29;20053;-76
2022/09/25 10:54:09;;;;;;;0.20;0.20;;;14.60;99.90;;;;;;4855163;29;20175;-76
2022/09/25 10:56:37;;;;;;;0.20;0.20;;;14.70;99.90;;;;;;4858484;29;20049;-77
2022/09/25 10:59:28;;;;;;;0.10;0.10;;;14.80;99.90;;;;;;4856406;29;20154;-76
2022/09/25 11:01:57;;;;;;;0.10;0.10;;;14.80;99.90;;;;;;4856204;29;20072;-76
2022/09/25 11:04:30;;;;;;;0.20;0.20;;;14.80;99.90;;;;;;4854492;29;20049;-76
2022/09/25 11:06:59;;;;;;;0.10;0.10;;;14.80;99.90;;;;;;4857530;29;20045;-77
2022/09/25 11:09:27;;;;;;;0.20;0.20;;;14.80;99.90;;;;;;4857263;29;20128;-77
2022/09/25 11:12:06;;;;;;;0.20;0.20;;;14.70;99.90;;;;;;4858534;29;20390;-77
2022/09/25 11:14:34;;;;;;;0.20;0.20;;;14.70;99.90;;;;;;4856147;29;20494;-77
2022/09/25 11:17:08;;;;;;;0.10;0.10;;;14.70;99.90;;;;;;4858578;29;20117;-76
2022/09/25 11:19:40;;;;;;;0.10;0.10;;;14.70;99.90;;;;;;4856503;29;20062;-76
2022/09/25 11:22:35;;;;;;;0.20;0.20;;;14.80;99.90;;;;;;4856561;29;20114;-77
2022/09/25 11:25:33;;;;;;;0.10;0.10;;;14.90;99.90;;;;;;4855413;29;20050;-77
2022/09/25 11:28:05;;;;;;;0.20;0.20;;;15.10;99.90;;;;;;4869422;29;20068;-77
2022/09/25 11:30:42;;;;;;;0.20;0.20;;;15.30;99.90;;;;;;4891304;29;20060;-76
2022/09/25 11:33:15;;;;;;;0.20;0.20;;;15.30;99.90;;;;;;4878813;29;20037;-77
2022/09/25 11:35:54;;;;;;;0.20;0.20;;;15.40;99.90;;;;;;4878795;29;20037;-77
2022/09/25 11:41:44;;;;;;;0.20;0.20;;;15.40;99.90;;;;;;4879615;29;20096;-77
2022/09/25 11:44:33;;;;;;;0.20;0.20;;;15.40;99.90;;;;;;4861876;29;20056;-77
2022/09/25 11:47:19;;;;;;;0.20;0.20;;;15.40;99.90;;;;;;4863073;29;20393;-77
2022/09/25 11:49:50;;;;;;;0.20;0.20;;;15.40;99.90;;;;;;4860601;29;20064;-77
2022/09/25 11:52:23;;;;;;;;;;;15.40;99.90;;;;;;4879375;29;20056;-77
2022/09/25 11:55:10;;;;;;;0.10;0.10;;;15.40;99.90;;;;;;4862596;29;19923;-77
2022/09/25 11:58:13;;;;;;;0.20;0.20;;;15.60;99.90;;;;;;4878543;29;20041;-77
2022/09/25 12:00:39;;;;;;;0.20;0.20;;;15.80;99.90;;;;;;4891975;29;20135;-76
2022/09/25 12:03:14;;;;;;;0.10;0.10;;;16.00;99.90;;;;;;4877339;29;20058;-77
2022/09/25 12:05:47;;;;;;;0.20;0.20;;;16.10;99.90;;;;;;4878085;29;20148;-76
2022/09/25 12:08:44;;;;;;;0.20;0.20;;;16.10;99.90;;;;;;4878999;29;20092;-76
2022/09/25 12:11:28;;;;;;;0.20;0.20;;;16.00;99.90;;;;;;4844093;29;20053;-76
2022/09/25 12:14:09;;;;;;;0.20;0.20;;;16.00;99.90;;;;;;4862209;29;20501;-77
2022/09/25 12:16:56;;;;;;;0.20;0.20;;;16.00;99.90;;;;;;4862653;29;20466;-77
2022/09/25 12:19:46;;;;;;;0.20;0.20;;;16.00;99.90;;;;;;4877371;29;20055;-76
2022/09/25 12:22:32;;;;;;;0.20;0.20;;;15.80;99.90;;;;;;4878959;29;20053;-77
2022/09/25 12:25:17;;;;;;;0.10;0.10;;;15.80;99.90;;;;;;4876431;29;20057;-77
2022/09/25 12:27:45;;;;;;;0.10;0.10;;;15.80;99.90;;;;;;4854967;29;20076;-78
2022/09/25 12:30:33;;;;;;;0.20;0.20;;;15.70;99.90;;;;;;4877813;29;20040;-78
2022/09/25 12:33:26;;;;;;;0.20;0.20;;;15.70;99.90;;;;;;4863683;29;20049;-76
2022/09/25 12:36:02;;;;;;;0.10;0.10;;;15.70;99.90;;;;;;4861789;29;20053;-77
2022/09/25 12:38:54;;;;;;;0.20;0.20;;;15.90;99.90;;;;;;4861486;29;20109;-77
2022/09/25 12:42:11;;;;;;;0.20;0.20;;;15.90;99.90;;;;;;4877273;29;20059;-78
2022/09/25 12:44:43;;;;;;;0.30;0.30;;;16.00;99.90;;;;;;4858179;29;20056;-77
2022/09/25 12:47:32;;;;;;;0.20;0.20;;;16.10;99.90;;;;;;4886041;29;20080;-77
2022/09/25 12:50:19;;;;;;;0.20;0.20;;;16.10;99.90;;;;;;4870848;29;20083;-77
2022/09/25 12:52:56;;;;;;;0.10;0.10;;;16.10;99.90;;;;;;4878329;29;20053;-77
2022/09/25 12:55:44;;;;;;;0.10;0.10;;;16.20;99.90;;;;;;4877781;29;20097;-78
2022/09/25 12:58:40;;;;;;;0.17;0.17;;;16.30;99.90;;;;;;4859841;29;20049;-77
2022/09/25 13:01:20;;;;;;;0.20;0.20;;;16.50;99.90;;;;;;4856190;29;20072;-78
2022/09/25 13:04:09;;;;;;;0.20;0.20;;;16.70;99.90;;;;;;4859687;29;20176;-75
2022/09/25 13:06:50;;;;;;;0.20;0.20;;;16.70;99.90;;;;;;4875080;29;20051;-76
2022/09/25 13:09:29;;;;;;;0.20;0.20;;;16.70;99.90;;;;;;4884665;29;20049;-75
2022/09/25 13:12:01;;;;;;;0.20;0.20;;;16.90;99.90;;;;;;4879986;29;20045;-76
2022/09/25 13:14:38;;;;;;;0.20;0.20;;;16.90;99.90;;;;;;4871583;29;20120;-76
2022/09/25 13:17:05;;;;;;;0.20;0.20;;;16.80;99.90;;;;;;4860514;29;20124;-76
2022/09/25 13:19:34;;;;;;;0.20;0.20;;;16.80;99.90;;;;;;4857618;29;20053;-77
2022/09/25 13:22:07;;;;;;;0.20;0.20;;;17.00;99.90;;;;;;4876477;29;20048;-78
2022/09/25 13:24:44;;;;;;;0.20;0.20;;;17.30;99.90;;;;;;4892338;29;20819;-76
2022/09/25 13:27:21;;;;;;;0.20;0.20;;;17.40;99.90;;;;;;4874844;29;20068;-78
2022/09/25 13:30:05;;;;;;;0.20;0.20;;;17.60;99.90;;;;;;4858792;29;20057;-78
2022/09/25 13:32:37;;;;;;;0.20;0.20;;;17.70;99.90;;;;;;4858333;29;20041;-78
2022/09/25 13:35:06;;;;;;;0.20;0.20;;;17.80;99.90;;;;;;4859968;29;20088;-78
2022/09/25 13:37:35;;;;;;;0.20;0.20;;;18.10;99.90;;;;;;4871538;29;20077;-78
2022/09/25 13:43:26;;;;;;;0.10;0.10;;;18.40;99.90;;;;;;4875025;29;20045;-77
2022/09/25 13:46:14;;;;;;;0.20;0.20;;;18.50;99.90;;;;;;4877086;29;20057;-78
2022/09/25 13:48:40;;;;;;;0.20;0.20;;;18.50;99.90;;;;;;4876426;29;20053;-78
2022/09/25 13:51:20;;;;;;;0.20;0.20;;;18.80;99.90;;;;;;4876858;29;20049;-77
2022/09/25 13:54:23;;;;;;;0.20;0.20;;;19.30;99.90;;;;;;4877353;29;20049;-77
2022/09/25 13:56:52;;;;;;;0.20;0.20;;;19.60;99.90;;;;;;4874813;29;20051;-77
2022/09/25 13:59:23;;;;;;;0.20;0.20;;;19.90;99.90;;;;;;4875498;29;20348;-77
2022/09/25 14:01:56;;;;;;;;;;;20.00;99.90;;;;;;4877525;29;20069;-78
2022/09/25 14:04:38;;;;;;;0.20;0.20;;;19.80;99.90;;;;;;4875053;29;19928;-78
2022/09/25 14:07:11;;;;;;;0.20;0.20;;;19.50;99.90;;;;;;4860943;29;20048;-78
2022/09/25 14:09:43;;;;;;;0.20;0.20;;;19.30;99.90;;;;;;4877309;29;20055;-77
2022/09/25 14:12:26;;;;;;;0.20;0.20;;;19.10;99.90;;;;;;4858776;29;20109;-79